Time;durP1;ratioP1;P1;durP2;ratioP2;P2;SDS_P1;SDS_P2;PMS_P1;PMS_P2;Temp;Humidity;BMP_temperature;BMP_pressure;BME280_temperature;BME280_humidity;BME280_pressure;Samples;Min_cycle;Max_cycle;Signal;HPM_P1;HPM_P2
2021/08/12 00:01:47;;;;;;;12.43;7.35;;;;;;;15.92;88.10;95951.94;5043868;28;20514;-74
2021/08/12 00:04:17;;;;;;;12.25;7.68;;;;;;;15.92;88.17;95951.94;5040363;28;20050;-74
2021/08/12 00:06:43;;;;;;;15.27;7.55;;;;;;;15.92;87.65;95951.94;5046905;28;20414;-74
2021/08/12 00:09:08;;;;;;;16.02;7.63;;;;;;;15.96;87.49;95952.94;5049644;28;20049;-75
2021/08/12 00:11:34;;;;;;;12.63;7.60;;;;;;;15.91;87.80;95950.34;5044744;28;20044;-74
2021/08/12 00:13:59;;;;;;;11.75;7.45;;;;;;;15.92;87.85;95946.63;5049639;28;20410;-74
2021/08/12 00:16:25;;;;;;;12.90;7.35;;;;;;;15.87;88.38;95949.34;5049077;28;20134;-74
2021/08/12 00:18:55;;;;;;;12.43;7.75;;;;;;;15.73;89.37;95950.09;5043153;28;20041;-74
2021/08/12 00:21:22;;;;;;;13.40;7.60;;;;;;;15.60;89.32;95950.81;5042930;28;21714;-74
2021/08/12 00:23:48;;;;;;;15.57;8.10;;;;;;;15.50;90.54;95953.66;5048163;28;20088;-74
2021/08/12 00:26:14;;;;;;;18.02;7.97;;;;;;;15.46;90.39;95960.59;5048061;28;20045;-75
2021/08/12 00:28:40;;;;;;;12.35;8.07;;;;;;;15.48;90.24;95959.25;5044867;28;20495;-74
2021/08/12 00:31:05;;;;;;;12.98;7.65;;;;;;;15.47;90.05;95960.31;5032860;28;20069;-75
2021/08/12 00:33:33;;;;;;;15.02;8.60;;;;;;;15.45;90.12;95959.03;5031946;28;20091;-75
2021/08/12 00:35:59;;;;;;;13.20;7.85;;;;;;;15.31;90.39;95970.38;5040082;28;20102;-75
2021/08/12 00:38:24;;;;;;;15.32;7.57;;;;;;;15.25;90.46;95966.22;5048850;28;20495;-74
2021/08/12 00:40:50;;;;;;;14.57;8.10;;;;;;;15.24;91.51;95964.63;5046506;28;20079;-74
2021/08/12 00:43:16;;;;;;;13.43;8.00;;;;;;;15.30;90.21;95963.50;5047192;28;20045;-74
2021/08/12 00:45:41;;;;;;;12.23;7.88;;;;;;;15.32;90.06;95961.34;5046588;28;20044;-74
2021/08/12 00:48:07;;;;;;;16.80;8.02;;;;;;;15.27;90.36;95961.44;5048585;28;20045;-75
2021/08/12 00:50:34;;;;;;;13.13;8.20;;;;;;;15.23;90.53;95963.09;5049189;28;20510;-74
2021/08/12 00:52:59;;;;;;;12.02;7.53;;;;;;;15.14;90.50;95959.50;5040631;28;20045;-74
2021/08/12 00:55:25;;;;;;;10.93;7.10;;;;;;;15.17;89.94;95965.03;5046716;28;20414;-75
2021/08/12 00:57:51;;;;;;;12.73;7.53;;;;;;;15.24;89.69;95964.63;5049032;28;20049;-74
2021/08/12 01:00:16;;;;;;;15.70;8.13;;;;;;;15.27;89.70;95968.59;5045835;28;20091;-74
2021/08/12 01:02:42;;;;;;;11.57;7.50;;;;;;;15.26;89.36;95967.81;5043213;28;20037;-74
2021/08/12 01:05:09;;;;;;;15.20;7.95;;;;;;;15.24;89.68;95969.94;5046574;28;20033;-74
2021/08/12 01:07:44;;;;;;;14.18;8.20;;;;;;;15.22;89.94;95966.81;5047293;28;20041;-74
2021/08/12 01:10:21;;;;;;;12.80;7.45;;;;;;;15.20;89.43;95968.94;5045343;28;20041;-74
2021/08/12 01:13:04;;;;;;;11.57;7.88;;;;;;;15.12;89.69;95969.59;5040297;28;20418;-74
2021/08/12 01:15:37;;;;;;;12.70;7.75;;;;;;;14.99;90.64;95977.19;5046163;28;20040;-74
2021/08/12 01:18:12;;;;;;;15.80;8.07;;;;;;;14.94;90.83;95974.63;5044119;28;20088;-74
2021/08/12 01:21:16;;;;;;;15.57;8.00;;;;;;;14.85;91.24;95968.38;5040094;28;20553;-74
2021/08/12 01:23:42;;;;;;;13.10;8.45;;;;;;;14.83;91.14;95978.47;5044990;28;20128;-74
2021/08/12 01:26:09;;;;;;;12.88;8.05;;;;;;;14.68;91.80;95974.94;5039344;28;20050;-75
2021/08/12 01:28:41;;;;;;;12.25;7.78;;;;;;;14.67;91.76;95968.06;5035648;28;20048;-74
2021/08/12 01:31:22;;;;;;;15.73;8.75;;;;;;;14.54;92.74;95963.44;5048119;28;20045;-74
2021/08/12 01:34:04;;;;;;;12.75;7.88;;;;;;;14.57;92.64;95968.16;5036260;28;20087;-74
2021/08/12 01:36:31;;;;;;;20.17;8.18;;;;;;;14.71;91.66;95962.97;5047555;28;20053;-74
2021/08/12 01:39:00;;;;;;;16.05;8.65;;;;;;;14.64;91.77;95963.34;5047912;28;20045;-74
2021/08/12 01:41:28;;;;;;;14.85;8.52;;;;;;;14.60;91.53;95966.81;5038606;28;20042;-74
2021/08/12 01:43:54;;;;;;;13.65;7.95;;;;;;;14.63;91.33;95960.97;5044122;28;20045;-74
2021/08/12 01:46:25;;;;;;;14.38;7.93;;;;;;;14.63;91.16;95956.44;5042655;28;20041;-74
2021/08/12 01:48:54;;;;;;;12.90;8.32;;;;;;;14.63;90.86;95958.31;5050865;28;20048;-74
2021/08/12 01:51:22;;;;;;;16.48;8.85;;;;;;;14.53;91.86;95956.53;5052939;28;20049;-74
2021/08/12 01:53:50;;;;;;;12.43;8.52;;;;;;;14.50;91.83;95965.06;5049486;28;20037;-75
2021/08/12 01:56:17;;;;;;;13.25;8.25;;;;;;;14.54;92.02;95960.78;5042329;28;20060;-74
2021/08/12 01:58:44;;;;;;;12.77;8.10;;;;;;;14.65;91.61;95964.91;5051506;28;20102;-74
2021/08/12 02:01:10;;;;;;;15.73;8.52;;;;;;;14.56;91.40;95962.03;5042704;28;20045;-74
2021/08/12 02:03:36;;;;;;;15.55;8.55;;;;;;;14.48;91.50;95969.84;5046722;28;20039;-74
2021/08/12 02:06:03;;;;;;;13.02;8.45;;;;;;;14.55;91.44;95972.94;5051041;28;20423;-74
2021/08/12 02:08:30;;;;;;;13.77;7.85;;;;;;;14.52;90.42;95965.56;5051277;28;20398;-75
2021/08/12 02:10:55;;;;;;;11.13;7.53;;;;;;;14.51;90.43;95969.25;5051254;28;20045;-74
2021/08/12 02:13:24;;;;;;;12.98;8.13;;;;;;;14.49;91.51;95966.91;5039014;28;20158;-74
2021/08/12 02:15:51;;;;;;;13.75;8.60;;;;;;;14.46;90.87;95959.53;5051993;28;20079;-74
2021/08/12 02:18:17;;;;;;;15.02;7.97;;;;;;;14.42;91.37;95955.09;5051193;28;20078;-74
2021/08/12 02:20:48;;;;;;;16.13;9.18;;;;;;;14.42;91.58;95960.38;5050481;28;20438;-74
2021/08/12 02:23:32;;;;;;;13.75;8.50;;;;;;;14.34;92.14;95959.16;5050543;28;20048;-73
2021/08/12 02:26:03;;;;;;;13.55;8.30;;;;;;;14.37;91.81;95951.41;5051651;28;20048;-74
2021/08/12 02:28:31;;;;;;;13.23;8.45;;;;;;;14.34;91.65;95953.84;5050038;28;20402;-74
2021/08/12 02:30:58;;;;;;;12.10;8.18;;;;;;;14.31;91.50;95947.25;5052072;28;20053;-74
2021/08/12 02:33:28;;;;;;;10.95;7.82;;;;;;;14.33;91.71;95939.81;5047967;28;20045;-75
2021/08/12 02:35:55;;;;;;;13.15;8.80;;;;;;;14.28;92.33;95950.47;5051394;28;20116;-75
2021/08/12 02:38:23;;;;;;;13.60;8.52;;;;;;;14.34;91.71;95948.56;5049582;28;20048;-74
2021/08/12 02:40:51;;;;;;;16.77;8.88;;;;;;;14.27;92.12;95948.91;5049359;28;20048;-74
2021/08/12 02:43:18;;;;;;;13.82;8.65;;;;;;;14.26;91.96;95952.59;5041592;28;20059;-74
2021/08/12 02:45:46;;;;;;;16.33;8.98;;;;;;;14.23;91.79;95947.88;5051027;28;20704;-74
2021/08/12 02:48:13;;;;;;;15.88;8.65;;;;;;;14.30;91.26;95945.69;5049910;28;20056;-74
2021/08/12 02:50:42;;;;;;;13.45;8.43;;;;;;;14.32;91.21;95946.19;5040812;28;20499;-75
2021/08/12 02:53:08;;;;;;;13.73;8.40;;;;;;;14.24;91.21;95954.75;5032193;28;20057;-74
2021/08/12 02:55:35;;;;;;;17.10;8.40;;;;;;;14.29;90.94;95940.66;5044313;28;20041;-73
2021/08/12 02:58:02;;;;;;;12.20;7.88;;;;;;;14.18;91.14;95950.59;5049410;28;20041;-74
2021/08/12 03:00:27;;;;;;;18.42;8.02;;;;;;;14.14;91.07;95944.28;5044504;28;20112;-74
2021/08/12 03:02:54;;;;;;;12.65;8.10;;;;;;;14.13;91.54;95948.00;5037629;28;20038;-74
2021/08/12 03:05:20;;;;;;;12.38;7.50;;;;;;;14.16;91.43;95948.19;5040537;28;20411;-74
2021/08/12 03:07:48;;;;;;;12.63;8.52;;;;;;;14.10;91.82;95953.84;5049496;28;20041;-74
2021/08/12 03:10:18;;;;;;;14.77;8.25;;;;;;;14.06;92.28;95952.81;5049661;28;20029;-74
2021/08/12 03:12:45;;;;;;;14.73;8.13;;;;;;;13.96;91.57;95951.06;5049321;28;20533;-74
2021/08/12 03:15:12;;;;;;;12.98;8.60;;;;;;;14.01;92.05;95951.81;5051238;28;20120;-74
2021/08/12 03:17:38;;;;;;;13.63;8.07;;;;;;;14.00;91.48;95960.81;5049003;28;20044;-74
2021/08/12 03:20:06;;;;;;;16.63;8.05;;;;;;;13.92;91.49;95958.78;5042703;28;20048;-74
2021/08/12 03:22:32;;;;;;;13.75;8.35;;;;;;;13.99;92.04;95955.78;5046512;28;20037;-74
2021/08/12 03:24:57;;;;;;;13.07;7.82;;;;;;;14.07;91.90;95954.41;5050445;28;20175;-73
2021/08/12 03:27:23;;;;;;;13.90;8.02;;;;;;;14.15;91.51;95961.72;5046695;28;20060;-72
2021/08/12 03:29:50;;;;;;;13.60;8.02;;;;;;;14.03;91.84;95967.41;5050072;28;20531;-74
2021/08/12 03:32:17;;;;;;;13.45;8.15;;;;;;;14.10;91.70;95969.72;5042210;28;20044;-74
2021/08/12 03:34:43;;;;;;;12.07;7.65;;;;;;;14.01;91.38;95967.69;5031208;28;20049;-74
2021/08/12 03:37:08;;;;;;;12.73;7.53;;;;;;;13.94;91.77;95961.94;5045943;28;20052;-74
2021/08/12 03:39:34;;;;;;;14.10;8.10;;;;;;;13.80;92.96;95966.28;5045616;28;20040;-74
2021/08/12 03:42:00;;;;;;;14.18;8.25;;;;;;;13.80;92.41;95961.00;5043393;28;20145;-74
2021/08/12 03:44:26;;;;;;;16.98;7.75;;;;;;;13.88;92.58;95965.69;5030880;28;20037;-74
2021/08/12 03:46:52;;;;;;;11.88;8.40;;;;;;;13.67;92.67;95957.94;5046237;28;20041;-74
2021/08/12 03:49:18;;;;;;;13.43;8.55;;;;;;;13.82;92.10;95959.66;5043878;28;20045;-74
2021/08/12 03:51:44;;;;;;;14.27;8.00;;;;;;;13.79;92.51;95959.41;5042589;28;20040;-74
2021/08/12 03:54:09;;;;;;;12.32;8.52;;;;;;;13.90;92.00;95960.91;5049880;28;20051;-73
2021/08/12 03:56:35;;;;;;;13.18;8.50;;;;;;;13.86;92.03;95959.88;5049851;28;20494;-74
2021/08/12 03:59:01;;;;;;;15.73;8.60;;;;;;;13.80;91.85;95961.00;5048561;28;20414;-74
2021/08/12 04:01:27;;;;;;;15.65;8.65;;;;;;;13.79;91.98;95954.13;5047425;28;20052;-74
2021/08/12 04:03:52;;;;;;;13.30;8.55;;;;;;;13.81;92.09;95959.94;5046696;28;20634;-74
2021/08/12 04:06:18;;;;;;;14.00;8.98;;;;;;;13.79;91.59;95951.47;5049514;28;20091;-74
2021/08/12 04:08:44;;;;;;;13.98;8.35;;;;;;;13.81;91.86;95957.31;5047633;28;20469;-74
2021/08/12 04:11:09;;;;;;;19.35;8.65;;;;;;;13.85;91.81;95953.03;5048589;28;20051;-74
2021/08/12 04:13:35;;;;;;;13.93;8.52;;;;;;;13.75;92.44;95953.91;5043635;28;20720;-73
2021/08/12 04:16:00;;;;;;;15.35;8.48;;;;;;;13.71;92.90;95962.69;5050168;28;20048;-74
2021/08/12 04:18:26;;;;;;;11.82;7.95;;;;;;;13.71;92.99;95962.69;5046242;28;20045;-73
2021/08/12 04:20:52;;;;;;;13.00;8.30;;;;;;;13.63;92.99;95967.50;5040299;28;20048;-74
2021/08/12 04:23:18;;;;;;;17.33;8.63;;;;;;;13.53;93.11;95967.56;5048282;28;20069;-74
2021/08/12 04:25:45;;;;;;;14.82;9.15;;;;;;;13.46;94.07;95961.81;5050006;28;20049;-74
2021/08/12 04:28:10;;;;;;;12.75;8.85;;;;;;;13.51;93.80;95970.50;5047579;28;20426;-74
2021/08/12 04:30:36;;;;;;;11.48;7.80;;;;;;;13.62;93.05;95965.91;5045269;28;20072;-74
2021/08/12 04:33:02;;;;;;;13.05;8.18;;;;;;;13.77;92.77;95956.28;5035817;28;20064;-74
2021/08/12 04:35:27;;;;;;;12.40;8.40;;;;;;;13.76;92.42;95962.63;5044548;28;20068;-74
2021/08/12 04:37:53;;;;;;;13.40;8.02;;;;;;;13.68;93.26;95958.72;5047907;28;20418;-74
2021/08/12 04:40:20;;;;;;;13.38;8.50;;;;;;;13.74;93.40;95967.41;5042889;28;20082;-74
2021/08/12 04:42:48;;;;;;;15.32;8.65;;;;;;;13.84;93.60;95967.31;5047716;28;20045;-74
2021/08/12 04:45:15;;;;;;;12.77;8.43;;;;;;;13.82;93.57;95969.44;5048436;28;20116;-74
2021/08/12 04:47:40;;;;;;;16.45;8.50;;;;;;;13.72;93.96;95964.25;5040760;28;20048;-74
2021/08/12 04:50:08;;;;;;;14.75;8.77;;;;;;;13.69;93.88;95963.75;5044548;28;20049;-74
2021/08/12 04:52:34;;;;;;;16.13;8.15;;;;;;;13.74;93.94;95967.41;5049336;28;20751;-74
2021/08/12 04:55:00;;;;;;;12.93;8.75;;;;;;;13.73;94.34;95971.13;5049013;28;20041;-74
2021/08/12 04:57:26;;;;;;;11.98;8.32;;;;;;;13.85;93.67;95968.91;5047315;28;20077;-74
2021/08/12 04:59:51;;;;;;;12.80;8.80;;;;;;;13.86;93.85;95965.16;5037228;28;20037;-74
2021/08/12 05:02:17;;;;;;;16.40;8.60;;;;;;;13.89;93.94;95969.13;5043592;28;20045;-74
2021/08/12 05:04:42;;;;;;;13.50;8.73;;;;;;;13.90;94.60;95979.44;5047848;28;20044;-74
2021/08/12 05:07:08;;;;;;;12.45;8.27;;;;;;;13.95;94.30;95973.28;5048230;28;20556;-74
2021/08/12 05:09:34;;;;;;;15.75;8.85;;;;;;;14.02;94.28;95969.28;5045908;28;20053;-74
2021/08/12 05:12:00;;;;;;;12.93;8.98;;;;;;;14.14;94.31;95970.75;5044722;28;23165;-75
2021/08/12 05:14:26;;;;;;;12.50;8.25;;;;;;;14.18;94.24;95961.97;5043937;28;20037;-76
2021/08/12 05:16:51;;;;;;;13.75;8.77;;;;;;;14.19;94.70;95968.84;5045525;28;20049;-74
2021/08/12 05:19:17;;;;;;;14.55;8.68;;;;;;;14.43;94.17;95972.56;5043701;28;20513;-74
2021/08/12 05:21:42;;;;;;;13.05;9.05;;;;;;;14.43;94.03;95972.56;5038978;28;20050;-74
2021/08/12 05:24:08;;;;;;;13.93;8.77;;;;;;;14.43;94.70;95972.56;5042355;28;20041;-74
2021/08/12 05:26:34;;;;;;;13.38;8.77;;;;;;;14.47;95.27;95968.28;5046496;28;20044;-75
2021/08/12 05:28:59;;;;;;;14.95;8.80;;;;;;;14.54;95.70;95963.44;5047821;28;20065;-77
2021/08/12 05:31:25;;;;;;;13.07;9.15;;;;;;;14.73;95.51;95977.50;5042732;28;20033;-77
2021/08/12 05:33:50;;;;;;;13.32;9.10;;;;;;;14.88;94.96;95967.78;5029340;28;20045;-77
2021/08/12 05:36:16;;;;;;;16.70;9.45;;;;;;;14.86;95.27;95975.25;5037045;28;20118;-77
2021/08/12 05:38:42;;;;;;;17.85;9.82;;;;;;;15.06;95.49;95974.97;5048238;28;20052;-75
2021/08/12 05:41:07;;;;;;;21.08;9.45;;;;;;;15.21;94.85;95975.81;5039426;28;20054;-75
2021/08/12 05:43:33;;;;;;;17.65;9.80;;;;;;;15.48;94.30;95969.06;5044414;28;20053;-76
2021/08/12 05:45:58;;;;;;;14.90;9.60;;;;;;;15.50;94.87;95982.81;5042354;28;20722;-74
2021/08/12 05:48:24;;;;;;;15.90;9.45;;;;;;;15.75;94.13;95979.75;5043025;28;20043;-73
2021/08/12 05:50:50;;;;;;;14.80;9.30;;;;;;;15.91;93.69;95982.19;5055659;28;20454;-75
2021/08/12 05:53:17;;;;;;;15.70;9.60;;;;;;;16.03;93.10;95979.88;5045206;28;20589;-75
2021/08/12 05:55:43;;;;;;;13.45;9.00;;;;;;;16.03;93.81;95987.84;5042644;28;20057;-75
2021/08/12 05:58:08;;;;;;;14.82;9.05;;;;;;;16.27;92.45;95984.22;5046307;28;20123;-75
2021/08/12 06:00:34;;;;;;;13.45;9.35;;;;;;;16.45;91.69;95975.38;5045640;28;20073;-76
2021/08/12 06:03:11;;;;;;;12.75;8.70;;;;;;;16.62;90.71;95981.97;5046038;28;20041;-76
2021/08/12 06:05:38;;;;;;;13.80;8.45;;;;;;;16.70;90.37;95986.59;5043150;28;20495;-76
2021/08/12 06:08:06;;;;;;;14.27;9.23;;;;;;;16.80;89.96;95991.69;5043517;28;20037;-75
2021/08/12 06:10:33;;;;;;;15.68;9.32;;;;;;;16.79;90.02;95984.00;5047745;28;20041;-76
2021/08/12 06:12:59;;;;;;;13.60;8.20;;;;;;;16.90;89.37;95998.69;5039761;28;20041;-75
2021/08/12 06:15:26;;;;;;;11.00;8.02;;;;;;;17.01;87.53;95991.31;5045330;28;20048;-76
2021/08/12 06:17:53;;;;;;;14.40;8.48;;;;;;;17.05;88.75;95997.63;5047452;28;20560;-75
2021/08/12 06:20:19;;;;;;;12.63;8.10;;;;;;;16.90;88.93;95997.94;5047788;28;20041;-76
2021/08/12 06:22:47;;;;;;;12.85;8.45;;;;;;;17.03;88.29;96001.66;5039030;28;20502;-75
2021/08/12 06:25:12;;;;;;;12.10;8.55;;;;;;;17.09;88.53;95998.56;5045785;28;20411;-77
2021/08/12 06:27:39;;;;;;;14.27;8.57;;;;;;;17.20;87.53;96001.03;5044556;28;20045;-76
2021/08/12 06:30:06;;;;;;;13.05;8.57;;;;;;;17.23;87.49;96003.84;5038193;28;20056;-75
2021/08/12 06:32:32;;;;;;;15.40;8.48;;;;;;;17.33;86.87;96002.84;5035697;28;20129;-76
2021/08/12 06:34:58;;;;;;;12.73;8.07;;;;;;;17.49;85.95;95993.41;5043391;28;20452;-74
2021/08/12 06:37:24;;;;;;;13.57;8.05;;;;;;;17.67;85.38;95996.22;5049626;28;20065;-76
2021/08/12 06:39:50;;;;;;;12.32;8.35;;;;;;;17.68;85.34;95992.47;5051712;28;20045;-75
2021/08/12 06:42:17;;;;;;;10.73;7.85;;;;;;;17.92;84.84;95991.41;5040362;28;20046;-75
2021/08/12 06:44:42;;;;;;;12.80;8.93;;;;;;;17.87;84.97;95999.47;5045136;28;20041;-76
2021/08/12 06:47:08;;;;;;;12.68;8.10;;;;;;;17.75;86.13;95998.16;5039179;28;20402;-76
2021/08/12 06:49:34;;;;;;;12.55;8.43;;;;;;;17.66;87.49;96002.63;5042848;28;20723;-76
2021/08/12 06:51:59;;;;;;;11.00;7.65;;;;;;;18.03;84.50;96003.38;5032231;28;20056;-75
2021/08/12 06:54:25;;;;;;;13.32;8.35;;;;;;;17.95;86.13;96004.88;5049681;28;20087;-76
2021/08/12 06:56:50;;;;;;;13.95;8.43;;;;;;;18.17;84.40;96003.28;5051077;28;20465;-76
2021/08/12 06:59:16;;;;;;;12.15;8.25;;;;;;;18.16;84.12;96007.06;5042459;28;20798;-76
2021/08/12 07:01:41;;;;;;;12.45;8.50;;;;;;;18.29;83.80;96010.72;5047791;28;20064;-75
2021/08/12 07:04:07;;;;;;;12.00;7.97;;;;;;;18.30;84.35;96001.63;5046083;28;20041;-75
2021/08/12 07:06:36;;;;;;;12.80;7.95;;;;;;;18.32;84.54;96004.78;5050954;28;20410;-76
2021/08/12 07:09:01;;;;;;;14.75;8.60;;;;;;;18.27;83.90;96010.22;5049972;28;20033;-75
2021/08/12 07:11:27;;;;;;;12.27;8.38;;;;;;;18.65;83.19;96007.09;5046692;28;20132;-75
2021/08/12 07:13:52;;;;;;;13.32;7.70;;;;;;;18.70;81.89;96010.41;5042289;28;20045;-76
2021/08/12 07:16:18;;;;;;;13.93;8.23;;;;;;;19.10;79.95;95998.91;5047870;28;20037;-75
2021/08/12 07:18:45;;;;;;;18.95;8.10;;;;;;;19.27;79.87;96005.38;5049635;28;20151;-77
2021/08/12 07:21:20;;;;;;;11.57;7.95;;;;;;;19.13;80.04;96006.28;5046528;28;20044;-76
2021/08/12 07:23:49;;;;;;;13.88;8.05;;;;;;;18.95;82.98;96010.81;5050766;28;20037;-77
2021/08/12 07:26:16;;;;;;;10.98;7.90;;;;;;;19.17;81.14;96001.88;5046514;28;20037;-77
2021/08/12 07:28:45;;;;;;;16.95;8.15;;;;;;;19.43;79.85;95997.69;5051090;28;20406;-76
2021/08/12 07:31:13;;;;;;;12.05;8.10;;;;;;;19.62;78.58;96000.78;5049026;28;20069;-77
2021/08/12 07:33:38;;;;;;;10.82;7.72;;;;;;;19.58;78.25;95999.06;5048679;28;20116;-78
2021/08/12 07:36:05;;;;;;;11.70;8.20;;;;;;;19.56;78.65;95991.38;5047986;28;20112;-76
2021/08/12 07:38:33;;;;;;;12.48;8.40;;;;;;;19.46;79.61;95997.81;5045214;28;20052;-76
2021/08/12 07:41:00;;;;;;;13.65;7.93;;;;;;;19.59;79.19;95995.31;5044795;28;22274;-76
2021/08/12 07:43:27;;;;;;;16.45;8.07;;;;;;;19.48;80.29;95995.63;5032695;28;20157;-76
2021/08/12 07:45:53;;;;;;;14.32;8.70;;;;;;;19.55;78.98;96003.97;5038988;28;20037;-76
2021/08/12 07:48:18;;;;;;;12.98;8.55;;;;;;;19.86;76.64;96005.66;5045820;28;20037;-75
2021/08/12 07:50:45;;;;;;;11.15;8.07;;;;;;;19.84;78.00;96002.53;5044608;28;20045;-75
2021/08/12 07:53:10;;;;;;;12.13;8.02;;;;;;;19.93;77.73;96009.75;5045050;28;20094;-75
2021/08/12 07:55:36;;;;;;;12.68;8.15;;;;;;;19.88;77.40;96003.47;5048041;28;20041;-76
2021/08/12 07:58:02;;;;;;;13.18;8.82;;;;;;;20.05;77.40;96001.88;5048032;28;20049;-76
2021/08/12 08:00:29;;;;;;;12.18;8.27;;;;;;;20.25;78.15;96006.50;5034831;28;20041;-75
2021/08/12 08:02:54;;;;;;;15.25;7.85;;;;;;;20.46;76.65;96011.19;5035798;28;20045;-76
2021/08/12 08:05:22;;;;;;;12.02;7.82;;;;;;;20.38;76.91;96009.31;5030972;28;20704;-75
2021/08/12 08:07:49;;;;;;;13.40;8.45;;;;;;;21.00;74.10;96004.50;5040847;28;20114;-76
2021/08/12 08:10:16;;;;;;;12.20;8.13;;;;;;;20.75;75.38;96007.00;5045760;28;20099;-76
2021/08/12 08:12:42;;;;;;;10.98;8.10;;;;;;;20.60;76.01;95995.69;5048216;28;20037;-75
2021/08/12 08:15:13;;;;;;;13.93;8.95;;;;;;;20.73;74.83;96003.84;5029417;28;20049;-75
2021/08/12 08:17:39;;;;;;;13.40;8.40;;;;;;;20.85;76.00;96005.84;5045143;28;20099;-76
2021/08/12 08:20:07;;;;;;;12.82;8.25;;;;;;;20.94;78.47;96001.22;5044392;28;20040;-76
2021/08/12 08:22:33;;;;;;;11.88;8.15;;;;;;;21.40;75.61;95998.69;5044070;28;20049;-76
2021/08/12 08:24:59;;;;;;;14.27;8.23;;;;;;;21.44;74.76;95999.63;5048977;28;20056;-76
2021/08/12 08:27:25;;;;;;;11.63;8.48;;;;;;;21.82;74.75;95998.69;5041178;28;20049;-76
2021/08/12 08:29:51;;;;;;;13.80;8.80;;;;;;;21.63;77.36;96007.97;5042422;28;20116;-77
2021/08/12 08:32:18;;;;;;;11.73;8.30;;;;;;;21.50;77.36;96003.66;5042165;28;20064;-75
2021/08/12 08:34:43;;;;;;;12.10;8.50;;;;;;;21.65;74.72;96020.25;5046110;28;20482;-76
2021/08/12 08:37:09;;;;;;;11.38;7.82;;;;;;;21.83;71.48;96005.59;5047763;28;20045;-75
2021/08/12 08:39:35;;;;;;;15.35;7.68;;;;;;;21.82;72.98;96006.72;5042589;28;20041;-75
2021/08/12 08:42:01;;;;;;;10.95;7.88;;;;;;;22.10;71.36;96006.16;5042583;28;20068;-75
2021/08/12 08:44:29;;;;;;;10.70;8.00;;;;;;;22.03;71.96;96003.22;5047706;28;20045;-75
2021/08/12 08:46:56;;;;;;;14.57;8.45;;;;;;;21.92;73.04;96006.31;5044091;28;20041;-75
2021/08/12 08:49:22;;;;;;;14.30;8.75;;;;;;;21.86;73.04;95999.59;5034009;28;20045;-79
2021/08/12 08:51:52;;;;;;;12.75;8.80;;;;;;;21.78;72.92;95998.56;5045242;28;20102;-77
2021/08/12 08:54:18;;;;;;;11.48;7.57;;;;;;;21.82;74.89;95997.91;5049766;28;20119;-76
2021/08/12 08:56:45;;;;;;;11.10;8.35;;;;;;;21.77;73.97;95996.22;5048411;28;20128;-78
2021/08/12 08:59:14;;;;;;;12.35;8.55;;;;;;;21.80;72.70;96000.91;5038329;28;20064;-77
2021/08/12 09:01:40;;;;;;;11.32;8.35;;;;;;;21.83;72.20;95994.88;5046799;28;20045;-75
2021/08/12 09:04:06;;;;;;;11.23;8.50;;;;;;;21.84;71.09;95991.09;5044292;28;20151;-77
2021/08/12 09:06:31;;;;;;;11.48;8.48;;;;;;;21.94;72.33;95989.91;5048791;28;20049;-77
2021/08/12 09:08:58;;;;;;;12.88;8.40;;;;;;;22.41;68.06;95986.09;5051174;28;20056;-78
2021/08/12 09:11:27;;;;;;;12.07;8.27;;;;;;;22.53;68.72;95994.16;5041826;28;20040;-76
2021/08/12 09:13:53;;;;;;;15.02;8.52;;;;;;;22.56;70.10;95993.50;5047078;28;20045;-77
2021/08/12 09:16:34;;;;;;;13.18;8.48;;;;;;;22.38;68.97;95986.78;5047115;28;20408;-77
2021/08/12 09:19:19;;;;;;;12.77;8.30;;;;;;;22.26;70.78;95985.59;5039154;28;20048;-78
2021/08/12 09:21:45;;;;;;;13.52;8.32;;;;;;;22.19;70.63;95977.34;5046738;28;20118;-77
2021/08/12 09:24:11;;;;;;;10.98;7.82;;;;;;;22.94;65.59;95976.28;5039601;28;20053;-77
2021/08/12 09:26:38;;;;;;;12.80;8.35;;;;;;;23.18;64.98;95974.69;5044110;28;20045;-83
2021/08/12 09:29:06;;;;;;;11.35;7.90;;;;;;;22.95;65.46;95969.75;5041352;28;20068;-78
2021/08/12 09:31:32;;;;;;;13.43;8.07;;;;;;;22.91;65.24;95966.19;5040067;28;20398;-77
2021/08/12 09:33:57;;;;;;;12.98;8.45;;;;;;;22.82;65.92;95965.53;5038325;28;20515;-77
2021/08/12 09:36:36;;;;;;;16.08;9.00;;;;;;;22.80;67.33;95959.72;5046522;28;20044;-77
2021/08/12 09:39:10;;;;;;;14.48;8.68;;;;;;;23.07;64.68;95968.19;5045241;28;20061;-77
2021/08/12 09:41:52;;;;;;;10.50;8.27;;;;;;;23.11;67.82;95961.03;5039853;28;20069;-78
2021/08/12 09:44:28;;;;;;;15.05;8.23;;;;;;;23.53;63.90;95963.38;5040522;28;20072;-77
2021/08/12 09:46:57;;;;;;;11.95;8.32;;;;;;;23.84;63.85;95967.28;5047248;28;20041;-77
2021/08/12 09:49:24;;;;;;;12.40;8.75;;;;;;;23.98;64.25;95956.91;5046072;28;20815;-77
2021/08/12 09:51:49;;;;;;;12.00;8.52;;;;;;;24.25;61.96;95964.47;5028429;28;20049;-77
2021/08/12 09:54:27;;;;;;;13.13;8.45;;;;;;;24.35;59.79;95970.13;5033383;28;20069;-76
2021/08/12 09:56:53;;;;;;;11.95;8.20;;;;;;;24.35;61.52;95970.13;5043650;28;20045;-77
2021/08/12 09:59:18;;;;;;;12.10;8.77;;;;;;;24.27;63.00;95965.69;5029088;28;20061;-77
2021/08/12 10:01:44;;;;;;;13.93;8.85;;;;;;;24.15;60.21;95971.94;5041133;28;20052;-78
2021/08/12 10:04:23;;;;;;;13.90;9.25;;;;;;;24.18;60.26;95973.16;5035049;28;20061;-84
2021/08/12 10:06:48;;;;;;;13.68;9.13;;;;;;;24.34;58.98;95967.78;5047209;28;20041;-78
2021/08/12 10:09:17;;;;;;;12.05;8.63;;;;;;;24.78;57.46;95969.59;5045704;28;20111;-80
2021/08/12 10:11:43;;;;;;;13.40;9.15;;;;;;;24.90;62.12;95969.50;5045142;28;20198;-76
2021/08/12 10:14:09;;;;;;;13.02;9.15;;;;;;;24.94;57.84;95962.28;5049607;28;20519;-78
2021/08/12 10:16:37;;;;;;;18.55;9.07;;;;;;;24.81;59.32;95960.81;5051457;28;20056;-76
2021/08/12 10:19:06;;;;;;;15.25;8.73;;;;;;;24.93;58.18;95966.09;5051124;28;20481;-76
2021/08/12 10:21:41;;;;;;;12.27;8.73;;;;;;;24.80;58.98;95956.56;5050230;28;20041;-81
2021/08/12 10:24:07;;;;;;;13.20;8.57;;;;;;;24.83;61.03;95966.63;5040914;28;20076;-78
2021/08/12 10:26:35;;;;;;;13.95;8.07;;;;;;;25.17;59.52;95964.28;5052806;28;20048;-78
2021/08/12 10:29:07;;;;;;;11.60;8.57;;;;;;;25.41;60.78;95964.06;5049481;28;20057;-78
2021/08/12 10:31:33;;;;;;;13.55;7.57;;;;;;;26.05;51.14;95963.72;5038214;28;20094;-79
2021/08/12 10:33:58;;;;;;;11.52;7.45;;;;;;;26.53;52.90;95965.25;5050302;28;20510;-79
2021/08/12 10:36:25;;;;;;;14.43;7.40;;;;;;;27.21;45.46;95960.06;5050386;28;20040;-77
2021/08/12 10:38:52;;;;;;;11.95;7.70;;;;;;;27.31;47.27;95951.31;5049109;28;20053;-79
2021/08/12 10:41:18;;;;;;;12.77;8.45;;;;;;;27.41;47.89;95952.59;5059920;28;20045;-82
2021/08/12 10:43:45;;;;;;;12.00;7.88;;;;;;;27.11;47.26;95956.84;5049293;28;20065;-78
2021/08/12 10:46:11;;;;;;;14.02;7.55;;;;;;;27.98;43.98;95949.78;5046769;28;20033;-77
2021/08/12 10:48:38;;;;;;;14.10;8.35;;;;;;;28.10;42.22;95949.50;5042289;28;20053;-76
2021/08/12 10:51:23;;;;;;;10.57;7.55;;;;;;;28.01;46.51;95946.31;5041390;28;20495;-76
2021/08/12 10:54:17;;;;;;;14.43;8.55;;;;;;;28.31;44.89;95940.00;5039236;28;20057;-76
2021/08/12 10:56:49;;;;;;;16.15;9.30;;;;;;;28.42;44.78;95942.81;5046410;28;20693;-78
2021/08/12 10:59:34;;;;;;;14.95;9.48;;;;;;;27.93;45.49;95936.53;5044106;28;20111;-76
2021/08/12 11:02:28;;;;;;;18.77;9.48;;;;;;;28.07;45.79;95939.41;5044730;28;20446;-78
2021/08/12 11:05:04;;;;;;;15.32;8.63;;;;;;;29.31;43.00;95936.41;5048574;28;20815;-79
2021/08/12 11:07:40;;;;;;;11.65;8.82;;;;;;;29.20;43.85;95931.69;5047016;28;20614;-77
2021/08/12 11:10:13;;;;;;;13.65;8.65;;;;;;;29.69;42.52;95929.53;5049188;28;20049;-79
2021/08/12 11:12:53;;;;;;;14.10;9.68;;;;;;;29.80;42.47;95928.81;5040763;28;20658;-77
2021/08/12 11:15:40;;;;;;;16.27;9.98;;;;;;;28.71;43.73;95932.97;5043818;28;20064;-77
2021/08/12 11:18:08;;;;;;;13.77;9.65;;;;;;;30.20;46.04;95930.44;5046045;28;20041;-77
2021/08/12 11:20:37;;;;;;;14.85;9.40;;;;;;;31.06;40.13;95934.22;5040187;28;20056;-76
2021/08/12 11:23:20;;;;;;;12.32;9.05;;;;;;;30.77;41.03;95928.06;5040621;28;20048;-78
2021/08/12 11:26:04;;;;;;;14.30;9.55;;;;;;;31.86;38.77;95929.22;5049309;28;21732;-78
2021/08/12 11:28:38;;;;;;;15.45;9.52;;;;;;;31.77;36.44;95916.84;5048771;28;20072;-78